Snoqualmie River: Carnation station

back to: Snoqualmie river
Carnation station Summary - (NOAA Hydrograph: CRNW1)
flood stage: 54.0 ft
Latest reading:
Sun12/17 05:15 am 46.26 ft 2017 cfs (steady)
Past 24hr max:
Sat12/16 08:45 am 46.3 ft 2082 cfs
Forecasted crests: (published Sat 12/16/17 03:15 pm)
Mon12/18 10:00 am 51.97 ft 14915 cfs
Wed12/20 04:00 am 52.05 ft 15122 cfs

Carnation station Details

Latest Readings

Last 100 Readings:
Sun12/17 05:15 am 46.26 ft 2017 cfs
Sun12/17 05:00 am 46.26 ft 2017 cfs
Sun12/17 04:45 am 46.26 ft 2017 cfs
Sun12/17 04:30 am 46.26 ft 2017 cfs
Sun12/17 04:15 am 46.26 ft 2017 cfs
Sun12/17 04:00 am 46.26 ft 2017 cfs
Sun12/17 03:45 am 46.26 ft 2017 cfs
Sun12/17 03:30 am 46.26 ft 2017 cfs
Sun12/17 03:15 am 46.26 ft 2017 cfs
Sun12/17 03:00 am 46.27 ft 2033 cfs
Sun12/17 02:45 am 46.27 ft 2033 cfs
Sun12/17 02:30 am 46.26 ft 2017 cfs
Sun12/17 02:15 am 46.27 ft 2033 cfs
Sun12/17 02:00 am 46.26 ft 2017 cfs
Sun12/17 01:45 am 46.27 ft 2033 cfs
Sun12/17 01:30 am 46.26 ft 2017 cfs
Sun12/17 01:15 am 46.27 ft 2033 cfs
Sun12/17 01:00 am 46.26 ft 2017 cfs
Sun12/17 12:45 am 46.26 ft 2017 cfs
Sun12/17 12:30 am 46.27 ft 2033 cfs
Sun12/17 12:15 am 46.27 ft 2033 cfs
Sun12/17 12:00 am 46.27 ft 2033 cfs
Sat12/16 11:45 pm 46.27 ft 2033 cfs
Sat12/16 11:30 pm 46.27 ft 2033 cfs
Sat12/16 11:15 pm 46.27 ft 2033 cfs
Sat12/16 11:00 pm 46.27 ft 2033 cfs
Sat12/16 10:45 pm 46.27 ft 2033 cfs
Sat12/16 10:30 pm 46.27 ft 2033 cfs
Sat12/16 10:15 pm 46.28 ft 2049 cfs
Sat12/16 10:00 pm 46.28 ft 2049 cfs
Sat12/16 09:45 pm 46.27 ft 2033 cfs
Sat12/16 09:30 pm 46.28 ft 2049 cfs
Sat12/16 09:15 pm 46.28 ft 2049 cfs
Sat12/16 09:00 pm 46.28 ft 2049 cfs
Sat12/16 08:45 pm 46.28 ft 2049 cfs
Sat12/16 08:30 pm 46.28 ft 2049 cfs
Sat12/16 08:15 pm 46.28 ft 2049 cfs
Sat12/16 08:00 pm 46.28 ft 2049 cfs
Sat12/16 07:45 pm 46.28 ft 2049 cfs
Sat12/16 07:30 pm 46.28 ft 2049 cfs
Sat12/16 07:15 pm 46.29 ft 2065 cfs
Sat12/16 07:00 pm 46.28 ft 2049 cfs
Sat12/16 06:45 pm 46.29 ft 2065 cfs
Sat12/16 06:30 pm 46.29 ft 2065 cfs
Sat12/16 06:15 pm 46.29 ft 2065 cfs
Sat12/16 06:00 pm 46.29 ft 2065 cfs
Sat12/16 05:45 pm 46.29 ft 2065 cfs
Sat12/16 05:30 pm 46.29 ft 2065 cfs
Sat12/16 05:15 pm 46.29 ft 2065 cfs
Sat12/16 05:00 pm 46.29 ft 2065 cfs
Sat12/16 04:45 pm 46.29 ft 2065 cfs
Sat12/16 04:30 pm 46.3 ft 2082 cfs
Sat12/16 04:15 pm 46.29 ft 2065 cfs
Sat12/16 04:00 pm 46.29 ft 2065 cfs
Sat12/16 03:45 pm 46.29 ft 2065 cfs
Sat12/16 03:30 pm 46.3 ft 2082 cfs
Sat12/16 03:15 pm 46.3 ft 2082 cfs
Sat12/16 03:00 pm 46.3 ft 2082 cfs
Sat12/16 02:45 pm 46.3 ft 2082 cfs
Sat12/16 02:30 pm 46.3 ft 2082 cfs
Sat12/16 01:15 pm 46.3 ft 2082 cfs
Sat12/16 01:00 pm 46.3 ft 2082 cfs
Sat12/16 12:45 pm 46.3 ft 2082 cfs
Sat12/16 12:30 pm 46.3 ft 2082 cfs
Sat12/16 12:15 pm 46.3 ft 2082 cfs
Sat12/16 12:00 pm 46.3 ft 2082 cfs
Sat12/16 11:45 am 46.3 ft 2082 cfs
Sat12/16 11:30 am 46.3 ft 2082 cfs
Sat12/16 11:15 am 46.3 ft 2082 cfs
Sat12/16 11:00 am 46.3 ft 2082 cfs
Sat12/16 10:45 am 46.3 ft 2082 cfs
Sat12/16 10:30 am 46.3 ft 2082 cfs
Sat12/16 10:15 am 46.3 ft 2082 cfs
Sat12/16 10:00 am 46.3 ft 2082 cfs
Sat12/16 09:45 am 46.3 ft 2082 cfs
Sat12/16 09:30 am 46.3 ft 2082 cfs
Sat12/16 09:15 am 46.3 ft 2082 cfs
Sat12/16 09:00 am 46.29 ft 2065 cfs
Sat12/16 08:45 am 46.3 ft 2082 cfs
Sat12/16 08:30 am 46.29 ft 2065 cfs
Sat12/16 08:15 am 46.29 ft 2065 cfs
Sat12/16 08:00 am 46.29 ft 2065 cfs
Sat12/16 07:45 am 46.29 ft 2065 cfs
Sat12/16 07:30 am 46.29 ft 2065 cfs
Sat12/16 07:15 am 46.29 ft 2065 cfs
Sat12/16 07:00 am 46.29 ft 2065 cfs
Sat12/16 06:45 am 46.29 ft 2065 cfs
Sat12/16 06:30 am 46.29 ft 2065 cfs
Sat12/16 06:15 am 46.29 ft 2065 cfs
Sat12/16 06:00 am 46.29 ft 2065 cfs
Sat12/16 05:45 am 46.29 ft 2065 cfs
Sat12/16 05:30 am 46.29 ft 2065 cfs
Sat12/16 05:15 am 46.28 ft 2049 cfs
Sat12/16 05:00 am 46.29 ft 2065 cfs
Sat12/16 04:45 am 46.29 ft 2065 cfs
Sat12/16 04:30 am 46.29 ft 2065 cfs
Sat12/16 04:15 am 46.28 ft 2049 cfs
Sat12/16 04:00 am 46.28 ft 2049 cfs
Sat12/16 03:45 am 46.28 ft 2049 cfs
Sat12/16 03:30 am 46.28 ft 2049 cfs

Latest Forecasts

Currently Forecasted Readings:
Sat12/16 04:00 pm 46.28 ft 2057 cfs
Sat12/16 10:00 pm 46.27 ft 2031 cfs
Sun12/17 04:00 am 46.31 ft 2094 cfs
Sun12/17 10:00 am 46.54 ft 2484 cfs
Sun12/17 04:00 pm 47.21 ft 3806 cfs
Sun12/17 10:00 pm 48.48 ft 6712 cfs
Mon12/18 04:00 am 50.62 ft 11754 cfs
Mon12/18 10:00 am 51.97 ft 14915 cfs
Mon12/18 04:00 pm 51.81 ft 14556 cfs
Mon12/18 10:00 pm 50.65 ft 11806 cfs
Tue12/19 04:00 am 49.88 ft 10014 cfs
Tue12/19 10:00 am 49.74 ft 9718 cfs
Tue12/19 04:00 pm 50.56 ft 11597 cfs
Tue12/19 10:00 pm 51.76 ft 14431 cfs
Wed12/20 04:00 am 52.05 ft 15122 cfs
Wed12/20 10:00 am 50.91 ft 12430 cfs
Wed12/20 04:00 pm 49.82 ft 9894 cfs
Wed12/20 10:00 pm 49.11 ft 8204 cfs
Thu12/21 04:00 am 48.6 ft 6994 cfs
Thu12/21 10:00 am 48.18 ft 6083 cfs
Thu12/21 04:00 pm 47.88 ft 5400 cfs
Thu12/21 10:00 pm 47.67 ft 4864 cfs
Fri12/22 04:00 am 47.49 ft 4439 cfs
Fri12/22 10:00 am 47.34 ft 4100 cfs
Fri12/22 04:00 pm 47.22 ft 3822 cfs
Fri12/22 10:00 pm 47.1 ft 3588 cfs
Sat12/23 04:00 am 47.01 ft 3394 cfs
Sat12/23 10:00 am 46.93 ft 3226 cfs
Sat12/23 04:00 pm 46.85 ft 3080 cfs
Sat12/23 10:00 pm 46.79 ft 2953 cfs
Sun12/24 04:00 am 46.73 ft 2837 cfs
Sun12/24 10:00 am 46.67 ft 2737 cfs
Sun12/24 04:00 pm 46.62 ft 2645 cfs
Sun12/24 10:00 pm 46.58 ft 2559 cfs
Mon12/25 04:00 am 46.54 ft 2486 cfs
Mon12/25 10:00 am 46.5 ft 2415 cfs
Mon12/25 04:00 pm 46.46 ft 2348 cfs
Mon12/25 10:00 pm 46.42 ft 2291 cfs
Tue12/26 04:00 am 46.39 ft 2238 cfs

Snoqualmie River flood gauge data supplied by the
National Weather Service Northwest River Forecast Center.

Sign up for Floodzilla alerts.